createdAt,value
2022-10-20T00:01:17.895Z,2.30
2022-10-20T00:03:45.853Z,2.20
2022-10-20T00:06:18.015Z,2.25
2022-10-20T00:08:45.615Z,2.50
2022-10-20T00:11:14.829Z,3.47
2022-10-20T00:13:42.977Z,3.25
2022-10-20T00:16:10.201Z,1.98
2022-10-20T00:18:37.582Z,2.55
2022-10-20T00:21:09.417Z,2.17
2022-10-20T00:26:06.470Z,3.03
2022-10-20T00:28:34.021Z,1.90
2022-10-20T00:31:01.682Z,2.47
2022-10-20T00:33:28.588Z,2.60
2022-10-20T00:35:55.669Z,2.47
2022-10-20T00:38:22.807Z,2.15
2022-10-20T00:40:49.760Z,2.67
2022-10-20T00:43:17.886Z,3.28
2022-10-20T00:45:57.010Z,2.05
2022-10-20T00:48:28.307Z,2.53
2022-10-20T00:50:56.962Z,2.60
2022-10-20T00:53:27.469Z,2.50
2022-10-20T00:55:57.146Z,2.33
2022-10-20T00:58:25.126Z,3.00
2022-10-20T01:00:58.252Z,2.28
2022-10-20T01:03:31.987Z,2.92
2022-10-20T01:05:58.972Z,2.58
2022-10-20T01:08:26.109Z,2.47
2022-10-20T01:11:16.874Z,2.70
2022-10-20T01:14:02.016Z,2.70
2022-10-20T01:16:59.605Z,3.08
2022-10-20T01:19:46.718Z,2.72
2022-10-20T01:22:35.197Z,2.65
2022-10-20T01:25:18.319Z,3.10
2022-10-20T01:27:59.075Z,3.28
2022-10-20T01:30:26.189Z,2.28
2022-10-20T01:33:20.700Z,3.50
2022-10-20T01:36:17.580Z,3.15
2022-10-20T01:38:50.956Z,2.85
2022-10-20T01:41:27.520Z,3.47
2022-10-20T01:43:55.186Z,2.83
2022-10-20T01:46:25.438Z,3.38
2022-10-20T01:48:52.554Z,3.70
2022-10-20T01:51:19.538Z,2.72
2022-10-20T01:53:46.719Z,3.78
2022-10-20T01:56:23.901Z,2.55
2022-10-20T01:58:50.918Z,2.47
2022-10-20T02:01:30.221Z,2.67
2022-10-20T02:04:01.295Z,3.22
2022-10-20T02:06:49.313Z,4.45
2022-10-20T02:09:25.159Z,2.90
2022-10-20T02:12:05.215Z,3.95
2022-10-20T02:14:33.335Z,3.90
2022-10-20T02:17:06.665Z,3.42
2022-10-20T02:19:40.951Z,2.70
2022-10-20T02:22:10.163Z,2.72
2022-10-20T02:24:40.536Z,2.70
2022-10-20T02:27:18.323Z,2.78
2022-10-20T02:29:53.564Z,3.55
2022-10-20T02:32:21.741Z,3.63
2022-10-20T02:34:48.982Z,2.95
2022-10-20T02:39:44.328Z,3.13
2022-10-20T02:42:12.427Z,3.40
2022-10-20T02:44:39.625Z,3.22
2022-10-20T02:47:06.624Z,3.58
2022-10-20T02:49:33.593Z,3.50
2022-10-20T02:52:00.888Z,3.28
2022-10-20T02:54:28.768Z,2.72
2022-10-20T02:56:56.405Z,3.65
2022-10-20T02:59:23.379Z,3.50
2022-10-20T03:01:52.314Z,3.20
2022-10-20T03:04:19.469Z,3.45
2022-10-20T03:06:46.504Z,3.45
2022-10-20T03:09:13.450Z,3.90
2022-10-20T03:11:40.549Z,3.55
2022-10-20T03:14:07.584Z,3.63
2022-10-20T03:16:34.562Z,3.35
2022-10-20T03:19:04.631Z,4.50
2022-10-20T03:21:34.428Z,3.90
2022-10-20T03:24:01.515Z,3.70
2022-10-20T03:26:28.476Z,3.30
2022-10-20T03:28:55.716Z,3.78
2022-10-20T03:31:22.728Z,3.35
2022-10-20T03:33:50.191Z,4.05
2022-10-20T03:36:17.147Z,3.42
2022-10-20T03:38:46.866Z,4.35
2022-10-20T03:41:13.960Z,5.07
2022-10-20T03:43:41.929Z,3.22
2022-10-20T03:46:10.994Z,3.60
2022-10-20T03:48:39.323Z,4.68
2022-10-20T03:51:07.472Z,4.95
2022-10-20T03:53:34.744Z,3.78
2022-10-20T03:56:09.590Z,4.55
2022-10-20T03:58:36.807Z,3.55
2022-10-20T04:01:06.405Z,4.05
2022-10-20T04:03:33.409Z,3.85
2022-10-20T04:06:00.429Z,4.10
2022-10-20T04:08:27.301Z,3.80
2022-10-20T04:10:54.257Z,3.90
2022-10-20T04:13:21.202Z,4.32
2022-10-20T04:15:48.159Z,4.35
2022-10-20T04:18:17.858Z,3.92
2022-10-20T04:20:44.906Z,4.82
2022-10-20T04:23:12.177Z,4.30
2022-10-20T04:25:46.034Z,5.05
2022-10-20T04:28:14.074Z,3.92
2022-10-20T04:30:42.337Z,3.63
2022-10-20T04:33:09.929Z,4.80
2022-10-20T04:35:36.853Z,4.13
2022-10-20T04:38:05.022Z,3.65
2022-10-20T04:40:32.638Z,3.83
2022-10-20T04:43:01.006Z,4.22
2022-10-20T04:45:28.490Z,4.13
2022-10-20T04:48:02.273Z,5.35
2022-10-20T04:50:30.411Z,4.25
2022-10-20T04:53:07.798Z,4.80
2022-10-20T04:55:35.590Z,5.07
2022-10-20T04:58:02.684Z,5.10
2022-10-20T05:00:29.975Z,3.63
2022-10-20T05:02:56.994Z,4.40
2022-10-20T05:05:24.059Z,4.38
2022-10-20T05:07:50.925Z,3.97
2022-10-20T05:10:21.044Z,3.80
2022-10-20T05:12:48.058Z,4.32
2022-10-20T05:15:15.529Z,4.80
2022-10-20T05:17:42.518Z,5.55
2022-10-20T05:20:09.647Z,4.05
2022-10-20T05:22:36.988Z,6.25
2022-10-20T05:27:55.001Z,4.53
2022-10-20T05:30:22.150Z,4.80
2022-10-20T05:32:49.173Z,4.50
2022-10-20T05:35:17.309Z,4.18
2022-10-20T05:37:44.562Z,4.30
2022-10-20T05:40:13.000Z,4.30
2022-10-20T05:42:39.947Z,4.10
2022-10-20T05:45:07.675Z,4.22
2022-10-20T05:47:35.249Z,4.50
2022-10-20T05:50:02.360Z,5.07
2022-10-20T05:52:29.563Z,4.15
2022-10-20T05:54:56.612Z,4.22
2022-10-20T05:57:23.661Z,4.22
2022-10-20T05:59:50.564Z,3.65
2022-10-20T06:02:17.656Z,3.95
2022-10-20T06:04:44.764Z,6.13
2022-10-20T06:07:11.712Z,4.78
2022-10-20T06:09:39.919Z,4.13
2022-10-20T06:14:35.588Z,5.00
2022-10-20T06:17:02.604Z,5.47
2022-10-20T06:19:29.594Z,5.28
2022-10-20T06:21:56.839Z,5.25
2022-10-20T06:24:23.781Z,4.78
2022-10-20T06:26:51.546Z,4.45
2022-10-20T06:29:19.112Z,5.45
2022-10-20T06:31:51.498Z,4.88
2022-10-20T06:34:24.794Z,4.38
2022-10-20T06:36:55.308Z,6.35
2022-10-20T06:39:24.006Z,4.72
2022-10-20T06:41:53.777Z,6.78
2022-10-20T06:44:22.805Z,5.32
2022-10-20T06:46:52.368Z,5.22
2022-10-20T06:49:19.760Z,5.05
2022-10-20T06:51:46.881Z,3.88
2022-10-20T06:54:13.870Z,4.22
2022-10-20T06:56:41.066Z,4.97
2022-10-20T06:59:07.991Z,5.25
2022-10-20T07:01:37.141Z,4.80
2022-10-20T07:04:06.558Z,4.07
2022-10-20T07:06:36.263Z,3.88
2022-10-20T07:09:09.960Z,5.13
2022-10-20T07:11:37.156Z,4.18
2022-10-20T07:14:05.432Z,5.53
2022-10-20T07:16:34.481Z,5.25
2022-10-20T07:19:02.791Z,6.40
2022-10-20T07:21:35.729Z,4.25
2022-10-20T07:24:06.675Z,4.72
2022-10-20T07:26:36.103Z,4.65
2022-10-20T07:29:04.584Z,4.43
2022-10-20T07:31:38.921Z,5.05
2022-10-20T07:34:26.448Z,4.43
2022-10-20T07:36:56.325Z,4.47
2022-10-20T07:39:24.017Z,4.63
2022-10-20T07:41:51.592Z,4.50
2022-10-20T07:44:19.023Z,4.88
2022-10-20T07:46:46.044Z,4.13
2022-10-20T07:52:00.171Z,3.45
2022-10-20T07:54:27.244Z,4.32
2022-10-20T07:56:54.343Z,4.72
2022-10-20T07:59:21.418Z,3.88
2022-10-20T08:01:48.654Z,4.03
2022-10-20T08:04:15.640Z,4.15
2022-10-20T08:06:42.633Z,3.67
2022-10-20T08:09:09.583Z,4.22
2022-10-20T08:11:36.624Z,4.07
2022-10-20T08:14:04.499Z,4.15
2022-10-20T08:16:39.671Z,3.85
2022-10-20T08:21:48.053Z,4.00
2022-10-20T08:24:15.243Z,4.47
2022-10-20T08:26:42.331Z,3.55
2022-10-20T08:29:10.480Z,4.13
2022-10-20T08:31:37.459Z,4.38
2022-10-20T08:34:08.221Z,4.45
2022-10-20T08:36:39.877Z,3.63
2022-10-20T08:39:06.888Z,3.97
2022-10-20T08:41:55.485Z,4.15
2022-10-20T08:44:32.411Z,4.60
2022-10-20T08:47:03.946Z,3.25
2022-10-20T08:49:34.672Z,4.20
2022-10-20T08:52:02.431Z,3.50
2022-10-20T08:54:32.169Z,4.07
2022-10-20T08:56:59.379Z,3.60
2022-10-20T08:59:33.484Z,4.00
2022-10-20T09:02:01.339Z,4.70
2022-10-20T09:04:37.932Z,3.53
2022-10-20T09:07:18.798Z,4.03
2022-10-20T09:09:46.205Z,3.83
2022-10-20T09:12:15.048Z,4.40
2022-10-20T09:14:42.444Z,4.03
2022-10-20T09:17:17.069Z,4.00
2022-10-20T09:19:50.022Z,4.05
2022-10-20T09:22:19.464Z,4.13
2022-10-20T09:24:46.978Z,3.47
2022-10-20T09:27:36.621Z,4.97
2022-10-20T09:30:20.201Z,4.32
2022-10-20T09:32:48.639Z,3.45
2022-10-20T09:35:23.756Z,3.67
2022-10-20T09:37:59.994Z,4.40
2022-10-20T09:40:29.118Z,3.80
2022-10-20T09:43:17.148Z,3.33
2022-10-20T09:46:00.594Z,3.00
2022-10-20T09:48:47.805Z,3.47
2022-10-20T09:51:21.912Z,5.90
2022-10-20T09:54:07.965Z,3.42
2022-10-20T09:56:38.236Z,3.47
2022-10-20T09:59:23.652Z,4.13
2022-10-20T10:02:16.665Z,3.78
2022-10-20T10:04:46.457Z,3.35
2022-10-20T10:07:22.436Z,4.03
2022-10-20T10:10:02.458Z,3.88
2022-10-20T10:12:33.295Z,3.70
2022-10-20T10:15:23.644Z,3.72
2022-10-20T10:17:51.642Z,4.40
2022-10-20T10:20:18.711Z,4.35
2022-10-20T10:22:45.868Z,3.67
2022-10-20T10:25:36.778Z,3.92
2022-10-20T10:28:20.261Z,3.90
2022-10-20T10:30:50.069Z,3.70
2022-10-20T10:33:28.872Z,3.78
2022-10-20T10:35:56.750Z,3.95
2022-10-20T10:38:23.746Z,4.32
2022-10-20T10:40:59.741Z,3.75
2022-10-20T10:43:33.536Z,3.92
2022-10-20T10:46:10.590Z,4.28
2022-10-20T10:49:07.542Z,3.80
2022-10-20T10:51:41.775Z,4.10
2022-10-20T10:54:52.264Z,4.18
2022-10-20T10:57:55.187Z,3.50
2022-10-20T11:00:47.600Z,4.35
2022-10-20T11:03:42.407Z,4.07
2022-10-20T11:06:15.924Z,3.70
2022-10-20T11:08:52.709Z,3.85
2022-10-20T11:11:29.562Z,4.55
2022-10-20T11:14:27.459Z,3.95
2022-10-20T11:17:16.308Z,3.83
2022-10-20T11:20:21.206Z,3.95
2022-10-20T11:23:02.601Z,3.60
2022-10-20T11:25:55.539Z,4.50
2022-10-20T11:28:33.358Z,4.18
2022-10-20T11:31:01.087Z,6.75
2022-10-20T11:33:43.430Z,4.07
2022-10-20T11:36:18.545Z,4.32
2022-10-20T11:38:51.416Z,4.05
2022-10-20T11:41:24.445Z,5.05
2022-10-20T11:44:07.957Z,4.03
2022-10-20T11:46:54.788Z,3.75
2022-10-20T11:49:22.125Z,4.85
2022-10-20T11:52:16.699Z,3.60
2022-10-20T11:54:58.203Z,3.92
2022-10-20T11:57:43.638Z,3.95
2022-10-20T12:00:41.861Z,3.65
2022-10-20T12:03:21.599Z,3.92
2022-10-20T12:06:36.377Z,3.70
2022-10-20T12:09:10.257Z,3.88
2022-10-20T12:11:58.839Z,4.10
2022-10-20T12:14:36.910Z,4.15
2022-10-20T12:17:22.729Z,4.18
2022-10-20T12:19:52.433Z,3.22
2022-10-20T12:22:28.724Z,4.55
2022-10-20T12:24:55.788Z,3.72
2022-10-20T12:27:30.814Z,4.03
2022-10-20T12:30:35.426Z,4.20
2022-10-20T12:33:36.220Z,3.63
2022-10-20T12:36:34.124Z,4.25
2022-10-20T12:39:22.364Z,3.15
2022-10-20T12:42:01.930Z,3.42
2022-10-20T12:44:39.967Z,4.63
2022-10-20T12:47:08.834Z,4.00
2022-10-20T12:49:39.978Z,2.97
2022-10-20T12:52:18.277Z,3.75
2022-10-20T12:54:48.575Z,3.40
2022-10-20T12:57:35.866Z,4.60
2022-10-20T13:00:07.842Z,4.55
2022-10-20T13:05:12.657Z,4.05
2022-10-20T13:08:07.627Z,4.43
2022-10-20T13:10:37.118Z,3.88
2022-10-20T13:13:04.224Z,4.32
2022-10-20T13:15:48.748Z,4.72
2022-10-20T13:18:20.298Z,4.20
2022-10-20T13:21:08.669Z,3.45
2022-10-20T13:23:45.922Z,3.15
2022-10-20T13:26:28.207Z,4.20
2022-10-20T13:28:58.553Z,3.80
2022-10-20T13:31:25.581Z,3.25
2022-10-20T13:34:18.273Z,4.35
2022-10-20T13:36:57.095Z,4.22
2022-10-20T13:39:35.900Z,3.47
2022-10-20T13:42:33.894Z,3.80
2022-10-20T13:45:22.339Z,3.78
2022-10-20T13:48:21.877Z,3.92
2022-10-20T13:50:57.019Z,4.55
2022-10-20T13:53:31.600Z,3.80
2022-10-20T13:56:08.880Z,3.75
2022-10-20T13:58:35.867Z,3.80
2022-10-20T14:01:25.245Z,3.88
2022-10-20T14:03:56.217Z,3.83
2022-10-20T14:06:34.763Z,4.03
2022-10-20T14:09:17.895Z,4.45
2022-10-20T14:11:51.907Z,3.97
2022-10-20T14:14:25.566Z,3.72
2022-10-20T14:17:07.710Z,3.53
2022-10-20T14:19:36.363Z,4.82
2022-10-20T14:22:15.130Z,3.40
2022-10-20T14:24:48.744Z,3.92
2022-10-20T14:27:26.028Z,3.33
2022-10-20T14:29:55.595Z,4.47
2022-10-20T14:32:28.808Z,3.08
2022-10-20T14:35:02.807Z,4.28
2022-10-20T14:37:55.828Z,3.63
2022-10-20T14:40:35.979Z,2.90
2022-10-20T14:43:19.513Z,3.38
2022-10-20T14:45:56.230Z,4.10
2022-10-20T14:48:25.471Z,2.38
2022-10-20T14:50:54.120Z,4.55
2022-10-20T14:53:27.384Z,4.35
2022-10-20T14:55:56.146Z,3.10
2022-10-20T14:58:34.749Z,3.22
2022-10-20T15:01:34.264Z,3.15
2022-10-20T15:04:05.480Z,2.38
2022-10-20T15:06:33.651Z,2.92
2022-10-20T15:09:01.684Z,2.60
2022-10-20T15:11:31.882Z,2.88
2022-10-20T15:14:00.579Z,3.10
2022-10-20T15:16:46.434Z,2.90
2022-10-20T15:19:34.445Z,3.20
2022-10-20T15:22:07.346Z,2.65
2022-10-20T15:24:34.641Z,2.95
2022-10-20T15:27:04.991Z,3.15
2022-10-20T15:29:32.786Z,3.55
2022-10-20T15:32:00.255Z,2.75
2022-10-20T15:34:27.348Z,3.25
2022-10-20T15:36:55.250Z,2.78
2022-10-20T15:39:22.536Z,2.40
2022-10-20T15:41:51.637Z,2.28
2022-10-20T15:44:22.557Z,2.92
2022-10-20T15:46:54.359Z,2.38
2022-10-20T15:49:25.667Z,2.60
2022-10-20T15:51:58.691Z,2.05
2022-10-20T15:55:16.302Z,2.35
2022-10-20T15:58:03.537Z,2.28
2022-10-20T16:00:30.918Z,1.73
2022-10-20T16:02:58.185Z,2.05
2022-10-20T16:05:26.486Z,2.78
2022-10-20T16:07:55.117Z,2.53
2022-10-20T16:10:24.628Z,2.15
2022-10-20T16:12:51.643Z,1.67
2022-10-20T16:15:19.257Z,2.42
2022-10-20T16:17:47.182Z,2.33
2022-10-20T16:20:15.789Z,2.10
2022-10-20T16:22:42.985Z,2.20
2022-10-20T16:25:10.795Z,2.40
2022-10-20T16:27:38.063Z,2.63
2022-10-20T16:30:06.732Z,2.15
2022-10-20T16:32:35.499Z,3.42
2022-10-20T16:35:04.700Z,2.35
2022-10-20T16:37:32.838Z,2.30
2022-10-20T16:40:00.451Z,1.90
2022-10-20T16:42:30.804Z,1.88
2022-10-20T16:44:57.953Z,3.25
2022-10-20T16:47:26.244Z,2.28
2022-10-20T16:49:56.146Z,2.15
2022-10-20T16:52:26.195Z,1.98
2022-10-20T16:54:53.235Z,2.53
2022-10-20T16:57:20.089Z,1.98
2022-10-20T16:59:50.260Z,1.90
2022-10-20T17:02:19.192Z,1.95
2022-10-20T17:04:50.538Z,2.05
2022-10-20T17:07:18.188Z,2.03
2022-10-20T17:09:45.721Z,1.63
2022-10-20T17:12:12.777Z,1.52
2022-10-20T17:14:40.793Z,1.73
2022-10-20T17:17:07.940Z,1.70
2022-10-20T17:19:34.995Z,2.35
2022-10-20T17:22:02.824Z,2.05
2022-10-20T17:24:30.038Z,1.92
2022-10-20T17:26:57.004Z,1.77
2022-10-20T17:29:26.179Z,1.95
2022-10-20T17:31:53.559Z,2.72
2022-10-20T17:34:20.603Z,2.45
2022-10-20T17:36:47.666Z,1.98
2022-10-20T17:39:16.906Z,2.33
2022-10-20T17:41:46.513Z,3.40
2022-10-20T17:44:14.968Z,3.45
2022-10-20T17:46:43.402Z,2.53
2022-10-20T17:49:10.501Z,2.35
2022-10-20T17:51:42.890Z,2.33
2022-10-20T17:54:09.918Z,3.25
2022-10-20T17:56:40.205Z,2.92
2022-10-20T17:59:08.881Z,2.28
2022-10-20T18:01:41.291Z,2.75
2022-10-20T18:04:12.648Z,2.58
2022-10-20T18:06:40.783Z,3.30
2022-10-20T18:09:11.090Z,3.47
2022-10-20T18:11:39.619Z,2.92
2022-10-20T18:14:07.106Z,2.80
2022-10-20T18:16:36.896Z,2.80
2022-10-20T18:19:05.225Z,2.90
2022-10-20T18:21:32.941Z,2.92
2022-10-20T18:24:02.843Z,3.50
2022-10-20T18:26:34.798Z,3.08
2022-10-20T18:29:03.169Z,3.08
2022-10-20T18:31:33.067Z,3.13
2022-10-20T18:34:06.910Z,2.70
2022-10-20T18:36:42.050Z,3.13
2022-10-20T18:39:15.597Z,2.88
2022-10-20T18:41:43.657Z,3.10
2022-10-20T18:44:16.510Z,3.17
2022-10-20T18:46:46.165Z,3.60
2022-10-20T18:49:16.161Z,3.50
2022-10-20T18:51:46.596Z,4.03
2022-10-20T18:54:17.203Z,3.03
2022-10-20T18:56:45.122Z,2.88
2022-10-20T18:59:16.293Z,3.53
2022-10-20T19:01:45.430Z,3.30
2022-10-20T19:04:13.344Z,2.88
2022-10-20T19:06:45.959Z,3.50
2022-10-20T19:09:19.424Z,4.38
2022-10-20T19:11:47.794Z,3.30
2022-10-20T19:14:16.454Z,3.17
2022-10-20T19:16:50.553Z,3.10
2022-10-20T19:19:18.157Z,3.70
2022-10-20T19:21:46.610Z,2.92
2022-10-20T19:24:16.797Z,3.33
2022-10-20T19:27:02.297Z,3.03
2022-10-20T19:29:37.741Z,2.90
2022-10-20T19:32:07.738Z,2.60
2022-10-20T19:34:41.386Z,2.90
2022-10-20T19:37:11.356Z,3.30
2022-10-20T19:39:45.437Z,2.88
2022-10-20T19:42:17.939Z,3.08
2022-10-20T19:44:45.795Z,3.05
2022-10-20T19:47:13.084Z,2.90
2022-10-20T19:49:41.101Z,3.72
2022-10-20T19:52:09.521Z,3.30
2022-10-20T19:54:36.821Z,3.22
2022-10-20T19:57:06.394Z,3.08
2022-10-20T19:59:33.514Z,2.83
2022-10-20T20:02:05.791Z,2.33
2022-10-20T20:04:33.396Z,3.33
2022-10-20T20:07:02.322Z,3.05
2022-10-20T20:09:30.802Z,2.40
2022-10-20T20:12:00.844Z,3.55
2022-10-20T20:14:29.355Z,2.50
2022-10-20T20:16:56.468Z,2.75
2022-10-20T20:19:24.554Z,2.83
2022-10-20T20:21:51.761Z,2.53
2022-10-20T20:24:18.728Z,2.40
2022-10-20T20:26:48.059Z,2.63
2022-10-20T20:29:15.809Z,2.83
2022-10-20T20:31:43.307Z,2.42
2022-10-20T20:34:13.235Z,2.63
2022-10-20T20:36:40.587Z,4.47
2022-10-20T20:39:10.686Z,2.88
2022-10-20T20:41:37.815Z,2.67
2022-10-20T20:44:08.331Z,2.80
2022-10-20T20:46:40.520Z,2.87
2022-10-20T20:51:35.423Z,2.78
2022-10-20T20:54:03.068Z,2.53
2022-10-20T20:56:30.694Z,2.58
2022-10-20T20:58:58.661Z,3.15
2022-10-20T21:01:31.755Z,2.58
2022-10-20T21:04:01.649Z,3.60
2022-10-20T21:07:00.141Z,2.88
2022-10-20T21:09:18.817Z,2.53
2022-10-20T21:11:46.368Z,2.45
2022-10-20T21:14:13.508Z,3.05
2022-10-20T21:16:40.931Z,2.70
2022-10-20T21:19:10.112Z,2.92
2022-10-20T21:22:06.906Z,2.90
2022-10-20T21:24:34.217Z,2.30
2022-10-20T21:27:01.362Z,2.53
2022-10-20T21:29:28.454Z,2.55
2022-10-20T21:31:56.585Z,2.58
2022-10-20T21:34:23.570Z,3.58
2022-10-20T21:36:51.040Z,2.85
2022-10-20T21:39:18.287Z,2.70
2022-10-20T21:41:46.052Z,2.50
2022-10-20T21:44:17.414Z,3.42
2022-10-20T21:46:49.495Z,2.75
2022-10-20T21:49:19.119Z,2.40
2022-10-20T21:51:49.022Z,2.42
2022-10-20T21:54:18.722Z,2.50
2022-10-20T21:56:47.118Z,3.35
2022-10-20T21:59:18.437Z,3.03
2022-10-20T22:01:47.128Z,2.50
2022-10-20T22:04:14.479Z,3.05
2022-10-20T22:06:41.594Z,2.45
2022-10-20T22:09:08.887Z,3.28
2022-10-20T22:11:39.155Z,2.33
2022-10-20T22:14:06.875Z,2.60
2022-10-20T22:16:37.189Z,2.70
2022-10-20T22:19:11.817Z,2.58
2022-10-20T22:21:40.915Z,3.10
2022-10-20T22:24:08.408Z,4.00
2022-10-20T22:26:36.908Z,3.45
2022-10-20T22:29:05.372Z,2.75
2022-10-20T22:31:32.680Z,3.28
2022-10-20T22:33:59.997Z,3.95
2022-10-20T22:36:29.299Z,2.70
2022-10-20T22:38:56.504Z,2.42
2022-10-20T22:41:24.893Z,2.70
2022-10-20T22:43:51.811Z,2.90
2022-10-20T22:46:19.195Z,2.75
2022-10-20T22:48:46.445Z,2.53
2022-10-20T22:51:13.884Z,3.13
2022-10-20T22:53:42.794Z,2.67
2022-10-20T22:56:21.400Z,2.83
2022-10-20T22:58:51.678Z,3.28
2022-10-20T23:01:21.338Z,2.97
2022-10-20T23:03:48.372Z,2.95
2022-10-20T23:06:18.138Z,2.83
2022-10-20T23:08:48.528Z,2.55
2022-10-20T23:11:15.838Z,2.95
2022-10-20T23:13:43.154Z,2.53
2022-10-20T23:16:10.673Z,2.70
2022-10-20T23:18:38.244Z,2.50
2022-10-20T23:21:07.000Z,2.53
2022-10-20T23:23:37.495Z,2.60
2022-10-20T23:26:08.263Z,3.30
2022-10-20T23:28:36.674Z,3.13
2022-10-20T23:31:15.201Z,2.60
2022-10-20T23:33:43.732Z,2.33
2022-10-20T23:36:11.843Z,2.97
2022-10-20T23:38:39.084Z,2.67
2022-10-20T23:41:06.839Z,2.95
2022-10-20T23:46:09.100Z,2.33
2022-10-20T23:48:37.221Z,3.00
2022-10-20T23:51:05.831Z,1.85
2022-10-20T23:53:33.176Z,1.90
2022-10-20T23:56:00.145Z,2.08
2022-10-20T23:58:28.598Z,1.33
